EDT,Max TemperatureF,Mean TemperatureF,Min TemperatureF,Max Dew PointF,MeanDew PointF,Min DewpointF,Max Humidity, Mean Humidity, Min Humidity, Max Sea Level PressureIn, Mean Sea Level PressureIn, Min Sea Level PressureIn, Max VisibilityMiles, Mean VisibilityMiles, Min VisibilityMiles, Max Wind SpeedMPH, Mean Wind SpeedMPH, Max Gust SpeedMPH,PrecipitationIn, CloudCover, Events, WindDirDegrees
2013-3-1,61,58,54,47,41,35,67,55,45,30.05,30.00,29.94,10,10,7,15,11,22,0.00,2,,332
2013-3-2,60,55,50,41,37,33,64,53,45,30.10,30.04,30.01,10,10,10,21,12,30,0.01,5,,334
2013-3-3,54,49,44,37,33,29,60,55,48,30.18,30.09,30.02,10,10,10,20,12,26,0.00,6,,346
2013-3-4,63,54,46,41,34,27,83,52,35,30.25,30.19,30.15,10,10,10,14,9,20,0.00,1,,11
2013-3-5,73,58,43,60,50,39,89,70,46,30.19,30.13,30.06,10,10,9,14,5,17,0.00,1,,205
2013-3-6,66,60,54,63,46,37,88,62,41,30.16,30.08,29.98,10,10,10,24,16,34,0.00,3,Rain,314
2013-3-7,62,54,46,45,37,31,77,55,34,30.26,30.21,30.16,10,10,10,15,10,23,0.00,0,,351
2013-3-8,71,60,50,50,44,37,86,62,32,30.25,30.21,30.15,10,10,7,12,6,,0.00,0,,8
2013-3-9,73,64,55,51,47,41,77,57,30,30.24,30.19,30.15,10,10,7,10,6,,0.00,0,,66
2013-3-10,80,70,60,57,53,50,80,63,39,30.17,30.12,30.06,10,10,10,16,8,25,0.00,2,,85
2013-3-11,79,68,59,60,57,54,88,67,43,30.12,30.01,29.91,10,10,10,18,10,29,0.00,0,,156
2013-3-12,69,63,57,66,58,50,94,81,65,30.07,29.96,29.88,10,9,2,18,11,26,0.32,4,Rain,271
2013-3-13,71,64,57,50,43,32,72,52,25,30.21,30.15,30.07,10,10,10,17,11,22,0.00,0,,335
2013-3-14,64,58,53,50,36,23,72,47,22,30.30,30.24,30.19,10,10,10,17,12,23,0.00,0,,343
2013-3-15,71,56,43,47,40,28,90,56,24,30.32,30.25,30.19,10,10,10,14,6,,0.00,0,,359
2013-3-16,75,60,46,56,46,39,93,74,27,30.21,30.16,30.10,10,7,0,13,2,,0.00,0,Fog,189
2013-3-17,77,62,50,59,54,48,94,76,50,30.15,30.08,30.02,10,6,0,16,4,20,0.01,2,Fog,158
2013-3-18,75,68,62,66,62,57,87,77,66,30.04,29.99,29.92,10,10,8,18,8,30,0.00,3,,161
2013-3-19,84,72,62,64,62,60,96,78,47,30.03,29.97,29.92,10,8,3,14,4,,0.00,1,,23
2013-3-20,73,66,59,64,61,56,94,82,59,29.99,29.93,29.83,10,10,6,18,5,23,0.14,4,Rain,342
2013-3-21,69,59,48,57,41,29,90,54,23,30.01,29.95,29.90,10,10,10,15,8,22,0.00,0,,340
2013-3-22,78,62,48,67,56,42,94,74,39,30.02,29.96,29.91,10,8,2,16,5,23,0.74,6,Rain-Thunderstorm,90
2013-3-23,82,74,66,72,68,64,94,86,70,29.98,29.89,29.82,10,8,1,21,9,26,0.01,7,Rain,165
2013-3-24,82,76,70,72,70,65,94,85,74,29.83,29.74,29.67,10,7,2,23,12,33,0.00,7,,202
2013-3-25,69,62,55,65,48,36,87,59,35,30.08,29.92,29.78,10,10,7,26,14,31,0.00,0,,311
2013-3-26,60,55,50,42,35,32,57,48,40,30.27,30.18,30.07,10,10,10,28,15,34,0.00,1,,334
2013-3-27,57,52,46,41,34,27,71,51,38,30.36,30.29,30.24,10,10,10,16,11,21,0.00,0,,355
2013-3-28,70,60,50,45,37,27,74,49,22,30.33,30.28,30.23,10,10,10,13,7,,0.00,0,,356
2013-3-29,77,62,50,52,43,30,83,54,19,30.35,30.28,30.22,10,10,10,12,6,,0.00,0,,31
2013-3-30,77,64,52,54,49,44,86,59,33,30.27,30.22,30.16,10,10,8,14,7,23,0.00,0,,175
2013-3-31,80,68,57,61,55,50,87,65,36,30.17,30.11,30.03,10,10,10,20,6,21,0.00,0,,176